sensor_id;sensor_type;location;lat;lon;timestamp;temperature;humidity
670;DHT22;317;48.758;9.302;2022-11-23T00:02:15;3.90;99.90
670;DHT22;317;48.758;9.302;2022-11-23T00:04:43;3.80;99.90
670;DHT22;317;48.758;9.302;2022-11-23T00:07:10;3.30;99.90
670;DHT22;317;48.758;9.302;2022-11-23T00:09:37;3.40;99.90
670;DHT22;317;48.758;9.302;2022-11-23T00:12:04;3.80;99.90
670;DHT22;317;48.758;9.302;2022-11-23T00:14:31;3.80;99.90
670;DHT22;317;48.758;9.302;2022-11-23T00:16:58;4.00;99.90
670;DHT22;317;48.758;9.302;2022-11-23T00:19:24;3.80;99.90
670;DHT22;317;48.758;9.302;2022-11-23T00:21:52;3.70;99.90
670;DHT22;317;48.758;9.302;2022-11-23T00:24:19;3.80;99.90
670;DHT22;317;48.758;9.302;2022-11-23T00:26:46;3.50;99.90
670;DHT22;317;48.758;9.302;2022-11-23T00:29:13;3.50;99.90
670;DHT22;317;48.758;9.302;2022-11-23T00:31:39;3.80;99.90
670;DHT22;317;48.758;9.302;2022-11-23T00:34:06;3.70;99.90
670;DHT22;317;48.758;9.302;2022-11-23T00:36:33;3.60;99.90
670;DHT22;317;48.758;9.302;2022-11-23T00:39:01;3.60;99.90
670;DHT22;317;48.758;9.302;2022-11-23T00:41:28;3.40;99.90
670;DHT22;317;48.758;9.302;2022-11-23T00:43:54;3.30;99.90
670;DHT22;317;48.758;9.302;2022-11-23T00:46:23;3.30;99.90
670;DHT22;317;48.758;9.302;2022-11-23T00:48:52;3.30;99.90
670;DHT22;317;48.758;9.302;2022-11-23T00:51:20;2.90;99.90
670;DHT22;317;48.758;9.302;2022-11-23T00:53:48;3.40;99.90
670;DHT22;317;48.758;9.302;2022-11-23T00:56:17;3.50;99.90
670;DHT22;317;48.758;9.302;2022-11-23T00:58:47;3.70;99.90
670;DHT22;317;48.758;9.302;2022-11-23T01:01:16;3.60;99.90
670;DHT22;317;48.758;9.302;2022-11-23T01:03:47;3.70;99.90
670;DHT22;317;48.758;9.302;2022-11-23T01:06:16;3.90;99.90
670;DHT22;317;48.758;9.302;2022-11-23T01:08:47;3.90;99.90
670;DHT22;317;48.758;9.302;2022-11-23T01:11:14;3.40;99.90
670;DHT22;317;48.758;9.302;2022-11-23T01:13:42;4.20;99.90
670;DHT22;317;48.758;9.302;2022-11-23T01:16:13;3.70;99.90
670;DHT22;317;48.758;9.302;2022-11-23T01:18:40;3.60;99.90
670;DHT22;317;48.758;9.302;2022-11-23T01:21:08;4.20;99.90
670;DHT22;317;48.758;9.302;2022-11-23T01:23:35;4.20;99.90
670;DHT22;317;48.758;9.302;2022-11-23T01:26:05;4.40;99.90
670;DHT22;317;48.758;9.302;2022-11-23T01:28:33;4.50;99.90
670;DHT22;317;48.758;9.302;2022-11-23T01:31:06;4.20;99.90
670;DHT22;317;48.758;9.302;2022-11-23T01:33:33;4.60;99.90
670;DHT22;317;48.758;9.302;2022-11-23T01:36:00;4.60;99.90
670;DHT22;317;48.758;9.302;2022-11-23T01:38:27;4.30;99.90
670;DHT22;317;48.758;9.302;2022-11-23T01:40:54;4.50;99.90
670;DHT22;317;48.758;9.302;2022-11-23T01:43:21;4.50;99.90
670;DHT22;317;48.758;9.302;2022-11-23T01:45:58;4.40;99.90
670;DHT22;317;48.758;9.302;2022-11-23T01:48:31;4.40;99.90
670;DHT22;317;48.758;9.302;2022-11-23T01:51:01;4.50;99.90
670;DHT22;317;48.758;9.302;2022-11-23T01:53:31;4.50;99.90
670;DHT22;317;48.758;9.302;2022-11-23T01:55:59;4.40;99.90
670;DHT22;317;48.758;9.302;2022-11-23T01:58:28;4.50;99.90
670;DHT22;317;48.758;9.302;2022-11-23T02:00:57;4.50;99.90
670;DHT22;317;48.758;9.302;2022-11-23T02:03:26;4.50;99.90
670;DHT22;317;48.758;9.302;2022-11-23T02:05:56;4.40;99.90
670;DHT22;317;48.758;9.302;2022-11-23T02:08:27;4.40;99.90
670;DHT22;317;48.758;9.302;2022-11-23T02:10:55;4.20;99.90
670;DHT22;317;48.758;9.302;2022-11-23T02:13:23;4.10;99.90
670;DHT22;317;48.758;9.302;2022-11-23T02:15:50;4.10;99.90
670;DHT22;317;48.758;9.302;2022-11-23T02:18:20;4.20;99.90
670;DHT22;317;48.758;9.302;2022-11-23T02:20:50;3.60;99.90
670;DHT22;317;48.758;9.302;2022-11-23T02:23:25;4.40;99.90
670;DHT22;317;48.758;9.302;2022-11-23T02:25:58;4.40;99.90
670;DHT22;317;48.758;9.302;2022-11-23T02:28:28;4.10;99.90
670;DHT22;317;48.758;9.302;2022-11-23T02:30:56;4.10;99.90
670;DHT22;317;48.758;9.302;2022-11-23T02:33:23;3.90;99.90
670;DHT22;317;48.758;9.302;2022-11-23T02:35:52;3.90;99.90
670;DHT22;317;48.758;9.302;2022-11-23T02:38:19;3.80;99.90
670;DHT22;317;48.758;9.302;2022-11-23T02:40:46;3.90;99.90
670;DHT22;317;48.758;9.302;2022-11-23T02:43:14;3.80;99.90
670;DHT22;317;48.758;9.302;2022-11-23T02:45:47;3.70;99.90
670;DHT22;317;48.758;9.302;2022-11-23T02:48:15;3.60;99.90
670;DHT22;317;48.758;9.302;2022-11-23T02:50:42;3.50;99.90
670;DHT22;317;48.758;9.302;2022-11-23T02:53:09;3.00;99.90
670;DHT22;317;48.758;9.302;2022-11-23T02:55:36;3.20;99.90
670;DHT22;317;48.758;9.302;2022-11-23T02:58:04;3.30;99.90
670;DHT22;317;48.758;9.302;2022-11-23T03:00:32;2.80;99.90
670;DHT22;317;48.758;9.302;2022-11-23T03:03:00;3.50;99.90
670;DHT22;317;48.758;9.302;2022-11-23T03:05:27;3.10;99.90
670;DHT22;317;48.758;9.302;2022-11-23T03:07:53;3.30;99.90
670;DHT22;317;48.758;9.302;2022-11-23T03:10:21;3.20;99.90
670;DHT22;317;48.758;9.302;2022-11-23T03:12:47;3.30;99.90
670;DHT22;317;48.758;9.302;2022-11-23T03:15:14;3.10;99.90
670;DHT22;317;48.758;9.302;2022-11-23T03:17:42;2.90;99.90
670;DHT22;317;48.758;9.302;2022-11-23T03:20:10;3.00;99.90
670;DHT22;317;48.758;9.302;2022-11-23T03:22:36;3.00;99.90
670;DHT22;317;48.758;9.302;2022-11-23T03:25:04;2.60;99.90
670;DHT22;317;48.758;9.302;2022-11-23T03:27:31;2.90;99.90
670;DHT22;317;48.758;9.302;2022-11-23T03:29:59;2.90;99.90
670;DHT22;317;48.758;9.302;2022-11-23T03:32:26;2.80;99.90
670;DHT22;317;48.758;9.302;2022-11-23T03:34:54;2.80;99.90
670;DHT22;317;48.758;9.302;2022-11-23T03:37:21;2.80;99.90
670;DHT22;317;48.758;9.302;2022-11-23T03:39:48;2.80;99.90
670;DHT22;317;48.758;9.302;2022-11-23T03:42:15;2.90;99.90
670;DHT22;317;48.758;9.302;2022-11-23T03:44:42;3.10;99.90
670;DHT22;317;48.758;9.302;2022-11-23T03:47:09;3.20;99.90
670;DHT22;317;48.758;9.302;2022-11-23T03:49:36;3.00;99.90
670;DHT22;317;48.758;9.302;2022-11-23T03:52:04;3.10;99.90
670;DHT22;317;48.758;9.302;2022-11-23T03:54:31;2.80;99.90
670;DHT22;317;48.758;9.302;2022-11-23T03:56:58;3.40;99.90
670;DHT22;317;48.758;9.302;2022-11-23T03:59:24;3.30;99.90
670;DHT22;317;48.758;9.302;2022-11-23T04:01:51;3.50;99.90
670;DHT22;317;48.758;9.302;2022-11-23T04:04:18;3.40;99.90
670;DHT22;317;48.758;9.302;2022-11-23T04:06:45;3.50;99.90
670;DHT22;317;48.758;9.302;2022-11-23T04:09:14;3.60;99.90
670;DHT22;317;48.758;9.302;2022-11-23T04:11:40;3.60;99.90
670;DHT22;317;48.758;9.302;2022-11-23T04:14:07;3.40;99.90
670;DHT22;317;48.758;9.302;2022-11-23T04:16:34;3.90;99.90
670;DHT22;317;48.758;9.302;2022-11-23T04:19:01;4.00;99.90
670;DHT22;317;48.758;9.302;2022-11-23T04:21:27;3.80;99.90
670;DHT22;317;48.758;9.302;2022-11-23T04:23:54;3.90;99.90
670;DHT22;317;48.758;9.302;2022-11-23T04:26:22;4.00;99.90
670;DHT22;317;48.758;9.302;2022-11-23T04:28:49;4.00;99.90
670;DHT22;317;48.758;9.302;2022-11-23T04:31:16;4.10;99.90
670;DHT22;317;48.758;9.302;2022-11-23T04:33:42;4.20;99.90
670;DHT22;317;48.758;9.302;2022-11-23T04:36:09;4.30;99.90
670;DHT22;317;48.758;9.302;2022-11-23T04:38:36;4.40;99.90
670;DHT22;317;48.758;9.302;2022-11-23T04:41:03;4.30;99.90
670;DHT22;317;48.758;9.302;2022-11-23T04:43:31;4.10;99.90
670;DHT22;317;48.758;9.302;2022-11-23T04:45:58;4.40;99.90
670;DHT22;317;48.758;9.302;2022-11-23T04:48:24;4.20;99.90
670;DHT22;317;48.758;9.302;2022-11-23T04:50:51;4.40;99.90
670;DHT22;317;48.758;9.302;2022-11-23T04:53:18;4.50;99.90
670;DHT22;317;48.758;9.302;2022-11-23T04:55:45;4.40;99.90
670;DHT22;317;48.758;9.302;2022-11-23T04:58:12;4.40;99.90
670;DHT22;317;48.758;9.302;2022-11-23T05:00:40;4.30;99.90
670;DHT22;317;48.758;9.302;2022-11-23T05:03:07;4.30;99.90
670;DHT22;317;48.758;9.302;2022-11-23T05:05:36;4.30;99.90
670;DHT22;317;48.758;9.302;2022-11-23T05:08:03;4.20;99.90
670;DHT22;317;48.758;9.302;2022-11-23T05:10:30;4.20;99.90
670;DHT22;317;48.758;9.302;2022-11-23T05:12:57;4.20;99.90
670;DHT22;317;48.758;9.302;2022-11-23T05:15:24;3.70;99.90
670;DHT22;317;48.758;9.302;2022-11-23T05:17:52;4.20;99.90
670;DHT22;317;48.758;9.302;2022-11-23T05:20:19;4.00;99.90
670;DHT22;317;48.758;9.302;2022-11-23T05:22:47;4.10;99.90
670;DHT22;317;48.758;9.302;2022-11-23T05:25:13;3.70;99.90
670;DHT22;317;48.758;9.302;2022-11-23T05:27:40;3.70;99.90
670;DHT22;317;48.758;9.302;2022-11-23T05:30:07;3.70;99.90
670;DHT22;317;48.758;9.302;2022-11-23T05:32:34;3.60;99.90
670;DHT22;317;48.758;9.302;2022-11-23T05:35:03;3.60;99.90
670;DHT22;317;48.758;9.302;2022-11-23T05:37:30;3.60;99.90
670;DHT22;317;48.758;9.302;2022-11-23T05:39:59;3.80;99.90
670;DHT22;317;48.758;9.302;2022-11-23T05:42:26;3.80;99.90
670;DHT22;317;48.758;9.302;2022-11-23T05:44:53;3.70;99.90
670;DHT22;317;48.758;9.302;2022-11-23T05:47:20;3.50;99.90
670;DHT22;317;48.758;9.302;2022-11-23T05:49:47;3.30;99.90
670;DHT22;317;48.758;9.302;2022-11-23T05:52:15;3.60;99.90
670;DHT22;317;48.758;9.302;2022-11-23T05:54:42;3.30;99.90
670;DHT22;317;48.758;9.302;2022-11-23T05:57:10;3.40;99.90
670;DHT22;317;48.758;9.302;2022-11-23T05:59:40;3.50;99.90
670;DHT22;317;48.758;9.302;2022-11-23T06:02:07;3.60;99.90
670;DHT22;317;48.758;9.302;2022-11-23T06:04:34;3.70;99.90
670;DHT22;317;48.758;9.302;2022-11-23T06:07:01;3.50;99.90
670;DHT22;317;48.758;9.302;2022-11-23T06:09:29;3.60;99.90
670;DHT22;317;48.758;9.302;2022-11-23T06:11:56;3.70;99.90
670;DHT22;317;48.758;9.302;2022-11-23T06:14:23;3.50;99.90
670;DHT22;317;48.758;9.302;2022-11-23T06:16:50;3.70;99.90
670;DHT22;317;48.758;9.302;2022-11-23T06:19:17;3.60;99.90
670;DHT22;317;48.758;9.302;2022-11-23T06:21:44;3.80;99.90
670;DHT22;317;48.758;9.302;2022-11-23T06:24:11;4.00;99.90
670;DHT22;317;48.758;9.302;2022-11-23T06:26:39;3.90;99.90
670;DHT22;317;48.758;9.302;2022-11-23T06:29:05;3.80;99.90
670;DHT22;317;48.758;9.302;2022-11-23T06:31:32;4.00;99.90
670;DHT22;317;48.758;9.302;2022-11-23T06:33:59;3.80;99.90
670;DHT22;317;48.758;9.302;2022-11-23T06:36:26;3.80;99.90
670;DHT22;317;48.758;9.302;2022-11-23T06:38:54;3.70;99.90
670;DHT22;317;48.758;9.302;2022-11-23T06:41:21;4.00;99.90
670;DHT22;317;48.758;9.302;2022-11-23T06:43:50;3.70;99.90
670;DHT22;317;48.758;9.302;2022-11-23T06:46:17;4.00;99.90
670;DHT22;317;48.758;9.302;2022-11-23T06:48:44;3.60;99.90
670;DHT22;317;48.758;9.302;2022-11-23T06:51:12;3.80;99.90
670;DHT22;317;48.758;9.302;2022-11-23T06:53:39;3.20;99.90
670;DHT22;317;48.758;9.302;2022-11-23T06:56:07;3.70;99.90
670;DHT22;317;48.758;9.302;2022-11-23T06:58:35;3.50;99.90
670;DHT22;317;48.758;9.302;2022-11-23T07:01:06;3.30;99.90
670;DHT22;317;48.758;9.302;2022-11-23T07:03:33;3.50;99.90
670;DHT22;317;48.758;9.302;2022-11-23T07:06:03;3.30;99.90
670;DHT22;317;48.758;9.302;2022-11-23T07:08:30;3.40;99.90
670;DHT22;317;48.758;9.302;2022-11-23T07:10:59;3.70;99.90
670;DHT22;317;48.758;9.302;2022-11-23T07:13:26;3.60;99.90
670;DHT22;317;48.758;9.302;2022-11-23T07:15:53;3.60;99.90
670;DHT22;317;48.758;9.302;2022-11-23T07:18:21;3.10;99.90
670;DHT22;317;48.758;9.302;2022-11-23T07:20:48;3.30;99.90
670;DHT22;317;48.758;9.302;2022-11-23T07:23:15;3.60;99.90
670;DHT22;317;48.758;9.302;2022-11-23T07:25:42;3.50;99.90
670;DHT22;317;48.758;9.302;2022-11-23T07:28:11;3.60;99.90
670;DHT22;317;48.758;9.302;2022-11-23T07:30:38;3.60;99.90
670;DHT22;317;48.758;9.302;2022-11-23T07:33:06;3.60;99.90
670;DHT22;317;48.758;9.302;2022-11-23T07:35:37;3.70;99.90
670;DHT22;317;48.758;9.302;2022-11-23T07:38:04;3.10;99.90
670;DHT22;317;48.758;9.302;2022-11-23T07:40:32;3.60;99.90
670;DHT22;317;48.758;9.302;2022-11-23T07:43:00;3.80;99.90
670;DHT22;317;48.758;9.302;2022-11-23T07:45:27;3.80;99.90
670;DHT22;317;48.758;9.302;2022-11-23T07:47:57;3.60;99.90
670;DHT22;317;48.758;9.302;2022-11-23T07:50:24;3.80;99.90
670;DHT22;317;48.758;9.302;2022-11-23T07:52:53;3.90;99.90
670;DHT22;317;48.758;9.302;2022-11-23T07:55:21;3.70;99.90
670;DHT22;317;48.758;9.302;2022-11-23T07:57:50;4.00;99.90
670;DHT22;317;48.758;9.302;2022-11-23T08:00:18;3.80;99.90
670;DHT22;317;48.758;9.302;2022-11-23T08:02:44;3.90;99.90
670;DHT22;317;48.758;9.302;2022-11-23T08:05:12;4.10;99.90
670;DHT22;317;48.758;9.302;2022-11-23T08:07:40;3.90;99.90
670;DHT22;317;48.758;9.302;2022-11-23T08:10:09;4.00;99.90
670;DHT22;317;48.758;9.302;2022-11-23T08:12:35;4.20;99.90
670;DHT22;317;48.758;9.302;2022-11-23T08:15:03;4.30;99.90
670;DHT22;317;48.758;9.302;2022-11-23T08:17:30;4.20;99.90
670;DHT22;317;48.758;9.302;2022-11-23T08:19:56;4.40;99.90
670;DHT22;317;48.758;9.302;2022-11-23T08:22:23;4.60;99.90
670;DHT22;317;48.758;9.302;2022-11-23T08:24:51;4.60;99.90
670;DHT22;317;48.758;9.302;2022-11-23T08:27:19;4.70;99.90
670;DHT22;317;48.758;9.302;2022-11-23T08:29:46;4.90;99.90
670;DHT22;317;48.758;9.302;2022-11-23T08:32:13;5.10;99.90
670;DHT22;317;48.758;9.302;2022-11-23T08:34:41;5.10;99.90
670;DHT22;317;48.758;9.302;2022-11-23T08:37:08;5.30;99.90
670;DHT22;317;48.758;9.302;2022-11-23T08:39:35;5.40;99.90
670;DHT22;317;48.758;9.302;2022-11-23T08:42:02;5.30;99.90
670;DHT22;317;48.758;9.302;2022-11-23T08:44:31;5.70;99.90
670;DHT22;317;48.758;9.302;2022-11-23T08:46:58;5.80;99.90
670;DHT22;317;48.758;9.302;2022-11-23T08:49:26;5.60;99.90
670;DHT22;317;48.758;9.302;2022-11-23T08:51:52;6.00;99.90
670;DHT22;317;48.758;9.302;2022-11-23T08:54:20;6.00;99.90
670;DHT22;317;48.758;9.302;2022-11-23T08:56:48;6.10;99.90
670;DHT22;317;48.758;9.302;2022-11-23T08:59:16;6.10;99.90
670;DHT22;317;48.758;9.302;2022-11-23T09:01:45;6.10;99.90
670;DHT22;317;48.758;9.302;2022-11-23T09:04:12;6.40;99.90
670;DHT22;317;48.758;9.302;2022-11-23T09:06:39;6.20;99.90
670;DHT22;317;48.758;9.302;2022-11-23T09:09:06;6.60;99.90
670;DHT22;317;48.758;9.302;2022-11-23T09:11:32;7.10;99.90
670;DHT22;317;48.758;9.302;2022-11-23T09:13:59;7.10;93.30
670;DHT22;317;48.758;9.302;2022-11-23T09:16:26;7.30;70.60
670;DHT22;317;48.758;9.302;2022-11-23T09:18:56;7.40;1.00
670;DHT22;317;48.758;9.302;2022-11-23T09:21:23;7.70;1.00
670;DHT22;317;48.758;9.302;2022-11-23T09:23:54;8.10;1.00
670;DHT22;317;48.758;9.302;2022-11-23T09:26:22;8.20;1.00
670;DHT22;317;48.758;9.302;2022-11-23T09:28:50;8.40;1.00
670;DHT22;317;48.758;9.302;2022-11-23T09:31:16;8.50;99.90
670;DHT22;317;48.758;9.302;2022-11-23T09:33:43;9.00;99.90
670;DHT22;317;48.758;9.302;2022-11-23T09:36:11;8.40;1.00
670;DHT22;317;48.758;9.302;2022-11-23T09:38:38;8.70;99.90
670;DHT22;317;48.758;9.302;2022-11-23T09:44:01;10.00;99.90
670;DHT22;317;48.758;9.302;2022-11-23T09:46:36;9.80;99.90
670;DHT22;317;48.758;9.302;2022-11-23T09:49:13;10.00;1.00
670;DHT22;317;48.758;9.302;2022-11-23T09:51:43;10.20;99.90
670;DHT22;317;48.758;9.302;2022-11-23T09:54:21;11.00;99.90
670;DHT22;317;48.758;9.302;2022-11-23T09:56:51;11.50;1.00
670;DHT22;317;48.758;9.302;2022-11-23T09:59:32;11.20;1.00
670;DHT22;317;48.758;9.302;2022-11-23T10:02:02;12.40;99.90
670;DHT22;317;48.758;9.302;2022-11-23T10:04:33;11.50;99.90
670;DHT22;317;48.758;9.302;2022-11-23T10:07:10;12.90;1.00
670;DHT22;317;48.758;9.302;2022-11-23T10:09:41;13.60;1.00
670;DHT22;317;48.758;9.302;2022-11-23T10:12:24;13.40;1.00
670;DHT22;317;48.758;9.302;2022-11-23T10:15:14;13.80;1.00
670;DHT22;317;48.758;9.302;2022-11-23T10:17:58;13.50;99.90
670;DHT22;317;48.758;9.302;2022-11-23T10:20:40;13.10;1.00
670;DHT22;317;48.758;9.302;2022-11-23T10:23:15;15.10;99.90
670;DHT22;317;48.758;9.302;2022-11-23T10:25:46;14.60;99.90
670;DHT22;317;48.758;9.302;2022-11-23T10:28:16;15.40;99.90
670;DHT22;317;48.758;9.302;2022-11-23T10:30:54;16.70;90.90
670;DHT22;317;48.758;9.302;2022-11-23T10:33:27;14.70;99.90
670;DHT22;317;48.758;9.302;2022-11-23T10:35:55;14.20;99.90
670;DHT22;317;48.758;9.302;2022-11-23T10:38:26;13.60;99.90
670;DHT22;317;48.758;9.302;2022-11-23T10:41:00;13.60;99.90
670;DHT22;317;48.758;9.302;2022-11-23T10:43:31;14.00;99.90
670;DHT22;317;48.758;9.302;2022-11-23T10:46:29;15.30;99.90
670;DHT22;317;48.758;9.302;2022-11-23T10:49:09;15.90;86.70
670;DHT22;317;48.758;9.302;2022-11-23T10:51:36;16.30;69.40
670;DHT22;317;48.758;9.302;2022-11-23T10:54:13;17.00;41.90
670;DHT22;317;48.758;9.302;2022-11-23T10:56:45;17.80;42.00
670;DHT22;317;48.758;9.302;2022-11-23T10:59:28;17.20;22.30
670;DHT22;317;48.758;9.302;2022-11-23T11:02:16;15.90;61.20
670;DHT22;317;48.758;9.302;2022-11-23T11:04:44;17.60;25.70
670;DHT22;317;48.758;9.302;2022-11-23T11:07:20;15.30;57.70
670;DHT22;317;48.758;9.302;2022-11-23T11:09:51;16.10;84.10
670;DHT22;317;48.758;9.302;2022-11-23T11:12:18;16.10;37.70
670;DHT22;317;48.758;9.302;2022-11-23T11:15:00;16.40;42.20
670;DHT22;317;48.758;9.302;2022-11-23T11:17:32;18.00;17.50
670;DHT22;317;48.758;9.302;2022-11-23T11:20:00;16.00;4.70
670;DHT22;317;48.758;9.302;2022-11-23T11:22:47;14.20;99.90
670;DHT22;317;48.758;9.302;2022-11-23T11:25:27;15.80;99.90
670;DHT22;317;48.758;9.302;2022-11-23T11:27:55;16.80;47.50
670;DHT22;317;48.758;9.302;2022-11-23T11:30:23;16.10;16.50
670;DHT22;317;48.758;9.302;2022-11-23T11:32:56;16.00;46.00
670;DHT22;317;48.758;9.302;2022-11-23T11:35:31;15.30;82.90
670;DHT22;317;48.758;9.302;2022-11-23T11:38:03;15.70;52.30
670;DHT22;317;48.758;9.302;2022-11-23T11:40:36;14.60;91.70
670;DHT22;317;48.758;9.302;2022-11-23T11:43:06;17.30;46.60
670;DHT22;317;48.758;9.302;2022-11-23T11:45:38;18.30;12.40
670;DHT22;317;48.758;9.302;2022-11-23T11:48:11;17.00;2.80
670;DHT22;317;48.758;9.302;2022-11-23T11:50:43;17.90;1.00
670;DHT22;317;48.758;9.302;2022-11-23T11:53:18;19.00;1.00
670;DHT22;317;48.758;9.302;2022-11-23T11:55:52;17.30;1.00
670;DHT22;317;48.758;9.302;2022-11-23T11:58:22;16.60;1.00
670;DHT22;317;48.758;9.302;2022-11-23T12:00:55;16.30;1.00
670;DHT22;317;48.758;9.302;2022-11-23T12:03:36;16.50;1.00
670;DHT22;317;48.758;9.302;2022-11-23T12:06:10;19.70;1.00
670;DHT22;317;48.758;9.302;2022-11-23T12:08:44;19.70;1.00
670;DHT22;317;48.758;9.302;2022-11-23T12:11:15;18.90;1.00
670;DHT22;317;48.758;9.302;2022-11-23T12:13:58;16.30;1.00
670;DHT22;317;48.758;9.302;2022-11-23T12:16:30;15.80;1.00
670;DHT22;317;48.758;9.302;2022-11-23T12:19:16;17.60;1.00
670;DHT22;317;48.758;9.302;2022-11-23T12:24:58;17.00;1.00
670;DHT22;317;48.758;9.302;2022-11-23T12:27:38;17.40;1.00
670;DHT22;317;48.758;9.302;2022-11-23T12:30:21;17.10;1.00
670;DHT22;317;48.758;9.302;2022-11-23T12:33:29;16.50;1.00
670;DHT22;317;48.758;9.302;2022-11-23T12:36:11;15.10;1.00
670;DHT22;317;48.758;9.302;2022-11-23T12:38:59;15.80;1.00
670;DHT22;317;48.758;9.302;2022-11-23T12:41:34;16.40;1.00
670;DHT22;317;48.758;9.302;2022-11-23T12:47:21;17.60;1.00
670;DHT22;317;48.758;9.302;2022-11-23T12:49:56;16.90;1.00
670;DHT22;317;48.758;9.302;2022-11-23T12:52:38;15.40;1.00
670;DHT22;317;48.758;9.302;2022-11-23T12:55:15;14.20;1.00
670;DHT22;317;48.758;9.302;2022-11-23T12:57:49;16.80;1.00
670;DHT22;317;48.758;9.302;2022-11-23T13:00:19;16.00;1.00
670;DHT22;317;48.758;9.302;2022-11-23T13:03:16;15.40;1.00
670;DHT22;317;48.758;9.302;2022-11-23T13:06:20;15.70;1.00
670;DHT22;317;48.758;9.302;2022-11-23T13:09:11;17.00;1.00
670;DHT22;317;48.758;9.302;2022-11-23T13:11:55;17.50;1.00
670;DHT22;317;48.758;9.302;2022-11-23T13:14:32;16.60;1.00
670;DHT22;317;48.758;9.302;2022-11-23T13:17:23;16.30;1.00
670;DHT22;317;48.758;9.302;2022-11-23T13:20:13;18.10;1.00
670;DHT22;317;48.758;9.302;2022-11-23T13:22:42;17.30;1.00
670;DHT22;317;48.758;9.302;2022-11-23T13:25:23;18.10;1.00
670;DHT22;317;48.758;9.302;2022-11-23T13:27:56;17.00;1.00
670;DHT22;317;48.758;9.302;2022-11-23T13:30:27;16.70;1.00
670;DHT22;317;48.758;9.302;2022-11-23T13:33:22;17.50;1.00
670;DHT22;317;48.758;9.302;2022-11-23T13:35:58;16.60;1.00
670;DHT22;317;48.758;9.302;2022-11-23T13:38:40;15.40;1.00
670;DHT22;317;48.758;9.302;2022-11-23T13:44:22;15.50;1.00
670;DHT22;317;48.758;9.302;2022-11-23T13:47:16;15.60;1.00
670;DHT22;317;48.758;9.302;2022-11-23T13:49:47;15.20;4.00
670;DHT22;317;48.758;9.302;2022-11-23T13:52:29;13.90;51.90
670;DHT22;317;48.758;9.302;2022-11-23T13:55:04;15.10;21.70
670;DHT22;317;48.758;9.302;2022-11-23T13:57:32;15.50;7.90
670;DHT22;317;48.758;9.302;2022-11-23T14:06:10;14.70;32.80
670;DHT22;317;48.758;9.302;2022-11-23T14:08:40;15.90;21.60
670;DHT22;317;48.758;9.302;2022-11-23T14:11:10;16.50;1.00
670;DHT22;317;48.758;9.302;2022-11-23T14:13:40;17.00;1.00
670;DHT22;317;48.758;9.302;2022-11-23T14:16:11;16.30;1.00
670;DHT22;317;48.758;9.302;2022-11-23T14:19:01;17.00;1.00
670;DHT22;317;48.758;9.302;2022-11-23T14:21:35;17.30;1.00
670;DHT22;317;48.758;9.302;2022-11-23T14:24:24;16.80;1.00
670;DHT22;317;48.758;9.302;2022-11-23T14:27:18;16.30;1.00
670;DHT22;317;48.758;9.302;2022-11-23T14:30:22;16.40;1.00
670;DHT22;317;48.758;9.302;2022-11-23T14:33:06;16.60;1.00
670;DHT22;317;48.758;9.302;2022-11-23T14:35:42;16.30;1.00
670;DHT22;317;48.758;9.302;2022-11-23T14:38:49;15.20;1.00
670;DHT22;317;48.758;9.302;2022-11-23T14:41:25;13.90;1.00
670;DHT22;317;48.758;9.302;2022-11-23T14:43:53;14.20;30.00
670;DHT22;317;48.758;9.302;2022-11-23T14:46:25;14.30;19.80
670;DHT22;317;48.758;9.302;2022-11-23T14:49:02;14.30;16.90
670;DHT22;317;48.758;9.302;2022-11-23T14:51:29;14.50;8.10
670;DHT22;317;48.758;9.302;2022-11-23T14:54:00;13.70;22.50
670;DHT22;317;48.758;9.302;2022-11-23T14:56:32;12.60;58.40
670;DHT22;317;48.758;9.302;2022-11-23T14:59:02;12.20;99.90
670;DHT22;317;48.758;9.302;2022-11-23T15:01:30;11.60;99.90
670;DHT22;317;48.758;9.302;2022-11-23T15:03:58;11.30;99.90
670;DHT22;317;48.758;9.302;2022-11-23T15:06:29;11.00;99.90
670;DHT22;317;48.758;9.302;2022-11-23T15:09:05;11.10;99.90
670;DHT22;317;48.758;9.302;2022-11-23T15:11:36;10.90;99.90
670;DHT22;317;48.758;9.302;2022-11-23T15:14:16;10.40;99.90
670;DHT22;317;48.758;9.302;2022-11-23T15:16:45;9.70;1.00
670;DHT22;317;48.758;9.302;2022-11-23T15:19:26;9.80;1.00
670;DHT22;317;48.758;9.302;2022-11-23T15:21:54;9.50;1.00
670;DHT22;317;48.758;9.302;2022-11-23T15:24:22;9.50;1.00
670;DHT22;317;48.758;9.302;2022-11-23T15:26:51;9.20;93.50
670;DHT22;317;48.758;9.302;2022-11-23T15:29:30;9.40;99.90
670;DHT22;317;48.758;9.302;2022-11-23T15:31:57;9.70;99.90
670;DHT22;317;48.758;9.302;2022-11-23T15:34:24;9.40;99.90
670;DHT22;317;48.758;9.302;2022-11-23T15:36:53;9.50;1.00
670;DHT22;317;48.758;9.302;2022-11-23T15:39:22;8.70;1.00
670;DHT22;317;48.758;9.302;2022-11-23T15:41:52;8.80;20.10
670;DHT22;317;48.758;9.302;2022-11-23T15:44:24;9.00;99.90
670;DHT22;317;48.758;9.302;2022-11-23T15:46:53;8.60;99.90
670;DHT22;317;48.758;9.302;2022-11-23T15:49:20;8.50;1.00
670;DHT22;317;48.758;9.302;2022-11-23T15:51:48;8.90;99.90
670;DHT22;317;48.758;9.302;2022-11-23T15:54:20;8.60;99.90
670;DHT22;317;48.758;9.302;2022-11-23T15:56:49;8.50;99.90
670;DHT22;317;48.758;9.302;2022-11-23T15:59:34;8.20;99.90
670;DHT22;317;48.758;9.302;2022-11-23T16:02:09;8.20;99.90
670;DHT22;317;48.758;9.302;2022-11-23T16:04:40;8.20;99.90
670;DHT22;317;48.758;9.302;2022-11-23T16:07:20;8.60;98.30
670;DHT22;317;48.758;9.302;2022-11-23T16:09:48;8.40;99.90
670;DHT22;317;48.758;9.302;2022-11-23T16:12:22;8.80;70.50
670;DHT22;317;48.758;9.302;2022-11-23T16:14:51;8.50;1.00
670;DHT22;317;48.758;9.302;2022-11-23T16:17:19;8.30;42.10
670;DHT22;317;48.758;9.302;2022-11-23T16:19:52;8.50;1.00
670;DHT22;317;48.758;9.302;2022-11-23T16:22:29;8.50;1.00
670;DHT22;317;48.758;9.302;2022-11-23T16:25:05;8.50;35.30
670;DHT22;317;48.758;9.302;2022-11-23T16:27:33;8.60;3.90
670;DHT22;317;48.758;9.302;2022-11-23T16:30:02;8.70;99.90
670;DHT22;317;48.758;9.302;2022-11-23T16:32:30;8.80;99.90
670;DHT22;317;48.758;9.302;2022-11-23T16:35:01;8.30;99.90
670;DHT22;317;48.758;9.302;2022-11-23T16:37:34;8.90;1.00
670;DHT22;317;48.758;9.302;2022-11-23T16:40:01;8.80;43.80
670;DHT22;317;48.758;9.302;2022-11-23T16:42:28;8.90;1.00
670;DHT22;317;48.758;9.302;2022-11-23T16:44:55;8.90;1.00
670;DHT22;317;48.758;9.302;2022-11-23T16:47:24;8.90;1.00
670;DHT22;317;48.758;9.302;2022-11-23T16:49:55;8.70;1.00
670;DHT22;317;48.758;9.302;2022-11-23T16:52:23;9.00;1.00
670;DHT22;317;48.758;9.302;2022-11-23T16:54:50;8.50;1.00
670;DHT22;317;48.758;9.302;2022-11-23T16:57:28;8.80;7.70
670;DHT22;317;48.758;9.302;2022-11-23T16:59:56;8.90;1.00
670;DHT22;317;48.758;9.302;2022-11-23T17:02:25;8.70;99.90
670;DHT22;317;48.758;9.302;2022-11-23T17:04:52;8.70;1.00
670;DHT22;317;48.758;9.302;2022-11-23T17:07:18;8.60;1.00
670;DHT22;317;48.758;9.302;2022-11-23T17:09:45;9.10;52.40
670;DHT22;317;48.758;9.302;2022-11-23T17:12:15;8.60;53.50
670;DHT22;317;48.758;9.302;2022-11-23T17:14:45;8.80;1.00
670;DHT22;317;48.758;9.302;2022-11-23T17:17:16;8.60;1.00
670;DHT22;317;48.758;9.302;2022-11-23T17:19:45;8.30;1.00
670;DHT22;317;48.758;9.302;2022-11-23T17:22:13;8.40;99.90
670;DHT22;317;48.758;9.302;2022-11-23T17:24:40;8.80;1.00
670;DHT22;317;48.758;9.302;2022-11-23T17:27:11;8.30;1.00
670;DHT22;317;48.758;9.302;2022-11-23T17:29:39;8.80;1.00
670;DHT22;317;48.758;9.302;2022-11-23T17:32:09;7.90;99.90
670;DHT22;317;48.758;9.302;2022-11-23T17:34:36;8.10;99.90